sensor_id;sensor_type;location;lat;lon;timestamp;P1;durP1;ratioP1;P2;durP2;ratioP2
8556;SDS011;4316;53.840;10.762;2024-02-28T00:01:03;14.43;;;11.97;;
8556;SDS011;4316;53.840;10.762;2024-02-28T00:03:29;15.23;;;12.47;;
8556;SDS011;4316;53.840;10.762;2024-02-28T00:05:57;13.10;;;11.63;;
8556;SDS011;4316;53.840;10.762;2024-02-28T00:08:23;15.33;;;11.93;;
8556;SDS011;4316;53.840;10.762;2024-02-28T00:10:48;15.33;;;11.47;;
8556;SDS011;4316;53.840;10.762;2024-02-28T00:13:15;16.50;;;11.53;;
8556;SDS011;4316;53.840;10.762;2024-02-28T00:15:41;13.67;;;11.37;;
8556;SDS011;4316;53.840;10.762;2024-02-28T00:18:07;13.03;;;11.60;;
8556;SDS011;4316;53.840;10.762;2024-02-28T00:20:32;12.60;;;11.30;;
8556;SDS011;4316;53.840;10.762;2024-02-28T00:22:58;13.97;;;11.83;;
8556;SDS011;4316;53.840;10.762;2024-02-28T00:25:24;14.60;;;11.03;;
8556;SDS011;4316;53.840;10.762;2024-02-28T00:27:49;13.50;;;10.73;;
8556;SDS011;4316;53.840;10.762;2024-02-28T00:30:16;13.90;;;11.07;;
8556;SDS011;4316;53.840;10.762;2024-02-28T00:32:42;14.77;;;11.47;;
8556;SDS011;4316;53.840;10.762;2024-02-28T00:35:08;15.23;;;11.40;;
8556;SDS011;4316;53.840;10.762;2024-02-28T00:37:34;13.60;;;12.07;;
8556;SDS011;4316;53.840;10.762;2024-02-28T00:39:59;14.90;;;12.20;;
8556;SDS011;4316;53.840;10.762;2024-02-28T00:42:25;13.63;;;11.60;;
8556;SDS011;4316;53.840;10.762;2024-02-28T00:44:52;13.20;;;10.80;;
8556;SDS011;4316;53.840;10.762;2024-02-28T00:47:18;14.40;;;11.03;;
8556;SDS011;4316;53.840;10.762;2024-02-28T00:49:43;12.47;;;10.83;;
8556;SDS011;4316;53.840;10.762;2024-02-28T00:52:09;12.47;;;11.10;;
8556;SDS011;4316;53.840;10.762;2024-02-28T00:54:36;13.17;;;10.93;;
8556;SDS011;4316;53.840;10.762;2024-02-28T00:57:02;13.20;;;11.80;;
8556;SDS011;4316;53.840;10.762;2024-02-28T00:59:28;14.50;;;10.87;;
8556;SDS011;4316;53.840;10.762;2024-02-28T01:01:53;12.07;;;10.60;;
8556;SDS011;4316;53.840;10.762;2024-02-28T01:04:19;11.30;;;10.20;;
8556;SDS011;4316;53.840;10.762;2024-02-28T01:06:45;17.53;;;11.23;;
8556;SDS011;4316;53.840;10.762;2024-02-28T01:09:11;12.77;;;10.33;;
8556;SDS011;4316;53.840;10.762;2024-02-28T01:11:37;12.60;;;10.83;;
8556;SDS011;4316;53.840;10.762;2024-02-28T01:14:03;12.07;;;10.20;;
8556;SDS011;4316;53.840;10.762;2024-02-28T01:16:29;12.00;;;10.70;;
8556;SDS011;4316;53.840;10.762;2024-02-28T01:18:55;11.53;;;10.37;;
8556;SDS011;4316;53.840;10.762;2024-02-28T01:21:21;10.37;;;9.37;;
8556;SDS011;4316;53.840;10.762;2024-02-28T01:23:46;11.23;;;9.90;;
8556;SDS011;4316;53.840;10.762;2024-02-28T01:26:12;10.63;;;9.63;;
8556;SDS011;4316;53.840;10.762;2024-02-28T01:28:38;13.17;;;10.53;;
8556;SDS011;4316;53.840;10.762;2024-02-28T01:31:04;10.97;;;9.83;;
8556;SDS011;4316;53.840;10.762;2024-02-28T01:33:31;13.30;;;10.13;;
8556;SDS011;4316;53.840;10.762;2024-02-28T01:35:57;12.63;;;9.80;;
8556;SDS011;4316;53.840;10.762;2024-02-28T01:38:24;12.33;;;10.53;;
8556;SDS011;4316;53.840;10.762;2024-02-28T01:40:52;10.63;;;9.53;;
8556;SDS011;4316;53.840;10.762;2024-02-28T01:43:17;10.30;;;9.23;;
8556;SDS011;4316;53.840;10.762;2024-02-28T01:45:43;11.73;;;9.97;;
8556;SDS011;4316;53.840;10.762;2024-02-28T01:48:09;12.00;;;10.30;;
8556;SDS011;4316;53.840;10.762;2024-02-28T01:50:37;12.50;;;11.20;;
8556;SDS011;4316;53.840;10.762;2024-02-28T01:53:03;12.57;;;10.67;;
8556;SDS011;4316;53.840;10.762;2024-02-28T01:55:38;13.17;;;11.07;;
8556;SDS011;4316;53.840;10.762;2024-02-28T01:58:04;12.10;;;10.90;;
8556;SDS011;4316;53.840;10.762;2024-02-28T02:00:34;13.10;;;11.53;;
8556;SDS011;4316;53.840;10.762;2024-02-28T02:03:01;13.10;;;11.70;;
8556;SDS011;4316;53.840;10.762;2024-02-28T02:05:26;19.60;;;13.03;;
8556;SDS011;4316;53.840;10.762;2024-02-28T02:07:53;14.93;;;12.87;;
8556;SDS011;4316;53.840;10.762;2024-02-28T02:10:20;15.63;;;12.63;;
8556;SDS011;4316;53.840;10.762;2024-02-28T02:12:46;12.53;;;11.23;;
8556;SDS011;4316;53.840;10.762;2024-02-28T02:15:12;16.10;;;11.90;;
8556;SDS011;4316;53.840;10.762;2024-02-28T02:17:37;13.10;;;11.63;;
8556;SDS011;4316;53.840;10.762;2024-02-28T02:20:03;15.53;;;11.93;;
8556;SDS011;4316;53.840;10.762;2024-02-28T02:22:33;13.07;;;11.77;;
8556;SDS011;4316;53.840;10.762;2024-02-28T02:25:04;12.07;;;10.83;;
8556;SDS011;4316;53.840;10.762;2024-02-28T02:27:30;12.40;;;10.90;;
8556;SDS011;4316;53.840;10.762;2024-02-28T02:29:56;13.57;;;11.60;;
8556;SDS011;4316;53.840;10.762;2024-02-28T02:32:22;12.83;;;11.53;;
8556;SDS011;4316;53.840;10.762;2024-02-28T02:34:47;13.13;;;11.47;;
8556;SDS011;4316;53.840;10.762;2024-02-28T02:37:13;12.40;;;11.10;;
8556;SDS011;4316;53.840;10.762;2024-02-28T02:39:39;13.07;;;11.67;;
8556;SDS011;4316;53.840;10.762;2024-02-28T02:42:05;13.83;;;12.20;;
8556;SDS011;4316;53.840;10.762;2024-02-28T02:44:30;13.63;;;12.23;;
8556;SDS011;4316;53.840;10.762;2024-02-28T02:46:56;14.33;;;12.83;;
8556;SDS011;4316;53.840;10.762;2024-02-28T02:49:22;16.73;;;13.93;;
8556;SDS011;4316;53.840;10.762;2024-02-28T02:51:48;16.50;;;13.67;;
8556;SDS011;4316;53.840;10.762;2024-02-28T02:54:13;13.90;;;12.40;;
8556;SDS011;4316;53.840;10.762;2024-02-28T02:56:42;13.50;;;12.07;;
8556;SDS011;4316;53.840;10.762;2024-02-28T02:59:09;15.37;;;12.87;;
8556;SDS011;4316;53.840;10.762;2024-02-28T03:01:36;15.50;;;13.83;;
8556;SDS011;4316;53.840;10.762;2024-02-28T03:04:02;16.27;;;14.10;;
8556;SDS011;4316;53.840;10.762;2024-02-28T03:06:28;15.93;;;13.70;;
8556;SDS011;4316;53.840;10.762;2024-02-28T03:08:54;16.37;;;14.47;;
8556;SDS011;4316;53.840;10.762;2024-02-28T03:11:20;19.83;;;14.57;;
8556;SDS011;4316;53.840;10.762;2024-02-28T03:13:45;18.60;;;14.23;;
8556;SDS011;4316;53.840;10.762;2024-02-28T03:16:11;17.00;;;14.60;;
8556;SDS011;4316;53.840;10.762;2024-02-28T03:18:37;16.87;;;13.37;;
8556;SDS011;4316;53.840;10.762;2024-02-28T03:21:03;15.03;;;12.67;;
8556;SDS011;4316;53.840;10.762;2024-02-28T03:23:29;15.27;;;13.60;;
8556;SDS011;4316;53.840;10.762;2024-02-28T03:25:54;14.17;;;12.63;;
8556;SDS011;4316;53.840;10.762;2024-02-28T03:28:20;17.20;;;12.77;;
8556;SDS011;4316;53.840;10.762;2024-02-28T03:30:46;15.23;;;13.67;;
8556;SDS011;4316;53.840;10.762;2024-02-28T03:33:12;14.73;;;13.33;;
8556;SDS011;4316;53.840;10.762;2024-02-28T03:35:37;15.33;;;13.63;;
8556;SDS011;4316;53.840;10.762;2024-02-28T03:38:03;15.90;;;14.30;;
8556;SDS011;4316;53.840;10.762;2024-02-28T03:40:29;15.67;;;13.97;;
8556;SDS011;4316;53.840;10.762;2024-02-28T03:42:55;16.47;;;13.80;;
8556;SDS011;4316;53.840;10.762;2024-02-28T03:45:20;15.87;;;14.23;;
8556;SDS011;4316;53.840;10.762;2024-02-28T03:47:47;17.50;;;14.80;;
8556;SDS011;4316;53.840;10.762;2024-02-28T03:50:13;16.43;;;13.87;;
8556;SDS011;4316;53.840;10.762;2024-02-28T03:52:39;14.17;;;12.67;;
8556;SDS011;4316;53.840;10.762;2024-02-28T03:55:05;14.27;;;12.87;;
8556;SDS011;4316;53.840;10.762;2024-02-28T03:57:31;15.17;;;13.60;;
8556;SDS011;4316;53.840;10.762;2024-02-28T03:59:56;15.40;;;13.70;;
8556;SDS011;4316;53.840;10.762;2024-02-28T04:02:22;15.23;;;13.40;;
8556;SDS011;4316;53.840;10.762;2024-02-28T04:04:48;15.40;;;13.80;;
8556;SDS011;4316;53.840;10.762;2024-02-28T04:07:13;16.87;;;14.60;;
8556;SDS011;4316;53.840;10.762;2024-02-28T04:09:39;15.83;;;14.20;;
8556;SDS011;4316;53.840;10.762;2024-02-28T04:12:05;16.63;;;14.33;;
8556;SDS011;4316;53.840;10.762;2024-02-28T04:14:31;15.53;;;14.03;;
8556;SDS011;4316;53.840;10.762;2024-02-28T04:16:57;20.27;;;15.20;;
8556;SDS011;4316;53.840;10.762;2024-02-28T04:19:22;16.73;;;13.73;;
8556;SDS011;4316;53.840;10.762;2024-02-28T04:21:48;17.37;;;14.50;;
8556;SDS011;4316;53.840;10.762;2024-02-28T04:24:14;16.17;;;14.47;;
8556;SDS011;4316;53.840;10.762;2024-02-28T04:26:40;17.63;;;14.40;;
8556;SDS011;4316;53.840;10.762;2024-02-28T04:29:05;14.93;;;13.17;;
8556;SDS011;4316;53.840;10.762;2024-02-28T04:31:37;14.23;;;12.73;;
8556;SDS011;4316;53.840;10.762;2024-02-28T04:34:03;14.73;;;12.60;;
8556;SDS011;4316;53.840;10.762;2024-02-28T04:36:29;15.67;;;13.20;;
8556;SDS011;4316;53.840;10.762;2024-02-28T04:38:54;15.47;;;13.77;;
8556;SDS011;4316;53.840;10.762;2024-02-28T04:41:20;15.27;;;13.33;;
8556;SDS011;4316;53.840;10.762;2024-02-28T04:43:46;17.57;;;14.40;;
8556;SDS011;4316;53.840;10.762;2024-02-28T04:46:12;16.97;;;15.27;;
8556;SDS011;4316;53.840;10.762;2024-02-28T04:48:38;15.93;;;14.33;;
8556;SDS011;4316;53.840;10.762;2024-02-28T04:51:04;16.57;;;14.87;;
8556;SDS011;4316;53.840;10.762;2024-02-28T04:53:29;17.10;;;14.60;;
8556;SDS011;4316;53.840;10.762;2024-02-28T04:55:55;17.93;;;14.30;;
8556;SDS011;4316;53.840;10.762;2024-02-28T04:58:21;15.73;;;14.13;;
8556;SDS011;4316;53.840;10.762;2024-02-28T05:00:47;17.30;;;14.93;;
8556;SDS011;4316;53.840;10.762;2024-02-28T05:03:12;15.90;;;14.20;;
8556;SDS011;4316;53.840;10.762;2024-02-28T05:05:38;16.57;;;14.97;;
8556;SDS011;4316;53.840;10.762;2024-02-28T05:08:04;17.73;;;14.67;;
8556;SDS011;4316;53.840;10.762;2024-02-28T05:10:30;17.20;;;15.20;;
8556;SDS011;4316;53.840;10.762;2024-02-28T05:12:56;18.57;;;16.57;;
8556;SDS011;4316;53.840;10.762;2024-02-28T05:15:22;18.10;;;16.07;;
8556;SDS011;4316;53.840;10.762;2024-02-28T05:17:50;22.60;;;16.93;;
8556;SDS011;4316;53.840;10.762;2024-02-28T05:20:16;20.63;;;18.20;;
8556;SDS011;4316;53.840;10.762;2024-02-28T05:22:42;19.30;;;17.30;;
8556;SDS011;4316;53.840;10.762;2024-02-28T05:25:08;19.10;;;17.00;;
8556;SDS011;4316;53.840;10.762;2024-02-28T05:27:35;19.63;;;15.60;;
8556;SDS011;4316;53.840;10.762;2024-02-28T05:30:01;21.33;;;18.30;;
8556;SDS011;4316;53.840;10.762;2024-02-28T05:32:27;18.67;;;15.50;;
8556;SDS011;4316;53.840;10.762;2024-02-28T05:34:53;18.73;;;16.47;;
8556;SDS011;4316;53.840;10.762;2024-02-28T05:37:18;21.40;;;17.83;;
8556;SDS011;4316;53.840;10.762;2024-02-28T05:39:45;20.90;;;18.70;;
8556;SDS011;4316;53.840;10.762;2024-02-28T05:42:11;23.10;;;17.80;;
8556;SDS011;4316;53.840;10.762;2024-02-28T05:44:37;21.37;;;18.13;;
8556;SDS011;4316;53.840;10.762;2024-02-28T05:47:03;22.23;;;18.77;;
8556;SDS011;4316;53.840;10.762;2024-02-28T05:49:29;21.43;;;18.27;;
8556;SDS011;4316;53.840;10.762;2024-02-28T05:51:57;20.40;;;18.30;;
8556;SDS011;4316;53.840;10.762;2024-02-28T05:54:23;22.00;;;18.80;;
8556;SDS011;4316;53.840;10.762;2024-02-28T05:56:49;21.70;;;18.67;;
8556;SDS011;4316;53.840;10.762;2024-02-28T05:59:15;20.53;;;17.43;;
8556;SDS011;4316;53.840;10.762;2024-02-28T06:01:41;27.57;;;18.60;;
8556;SDS011;4316;53.840;10.762;2024-02-28T06:04:06;21.23;;;18.87;;
8556;SDS011;4316;53.840;10.762;2024-02-28T06:06:32;20.77;;;18.57;;
8556;SDS011;4316;53.840;10.762;2024-02-28T06:08:58;19.97;;;17.87;;
8556;SDS011;4316;53.840;10.762;2024-02-28T06:11:24;21.13;;;18.10;;
8556;SDS011;4316;53.840;10.762;2024-02-28T06:16:16;21.23;;;18.93;;
8556;SDS011;4316;53.840;10.762;2024-02-28T06:18:43;20.63;;;17.70;;
8556;SDS011;4316;53.840;10.762;2024-02-28T06:21:09;22.80;;;18.17;;
8556;SDS011;4316;53.840;10.762;2024-02-28T06:23:35;20.27;;;18.17;;
8556;SDS011;4316;53.840;10.762;2024-02-28T06:26:01;20.37;;;18.17;;
8556;SDS011;4316;53.840;10.762;2024-02-28T06:28:27;20.60;;;18.40;;
8556;SDS011;4316;53.840;10.762;2024-02-28T06:30:53;21.77;;;19.47;;
8556;SDS011;4316;53.840;10.762;2024-02-28T06:33:18;22.00;;;17.63;;
8556;SDS011;4316;53.840;10.762;2024-02-28T06:35:44;27.80;;;17.43;;
8556;SDS011;4316;53.840;10.762;2024-02-28T06:38:10;23.03;;;18.13;;
8556;SDS011;4316;53.840;10.762;2024-02-28T06:40:36;20.13;;;16.93;;
8556;SDS011;4316;53.840;10.762;2024-02-28T06:43:02;20.83;;;17.40;;
8556;SDS011;4316;53.840;10.762;2024-02-28T06:45:28;22.87;;;18.83;;
8556;SDS011;4316;53.840;10.762;2024-02-28T06:47:54;19.83;;;17.70;;
8556;SDS011;4316;53.840;10.762;2024-02-28T06:50:20;22.67;;;17.77;;
8556;SDS011;4316;53.840;10.762;2024-02-28T06:52:45;22.57;;;18.10;;
8556;SDS011;4316;53.840;10.762;2024-02-28T06:55:11;21.83;;;18.73;;
8556;SDS011;4316;53.840;10.762;2024-02-28T06:57:42;28.90;;;20.53;;
8556;SDS011;4316;53.840;10.762;2024-02-28T07:00:09;25.97;;;19.40;;
8556;SDS011;4316;53.840;10.762;2024-02-28T07:02:40;23.77;;;19.73;;
8556;SDS011;4316;53.840;10.762;2024-02-28T07:05:06;23.50;;;19.17;;
8556;SDS011;4316;53.840;10.762;2024-02-28T07:07:32;24.00;;;19.53;;
8556;SDS011;4316;53.840;10.762;2024-02-28T07:09:58;21.17;;;17.97;;
8556;SDS011;4316;53.840;10.762;2024-02-28T07:12:24;20.37;;;17.33;;
8556;SDS011;4316;53.840;10.762;2024-02-28T07:14:51;21.90;;;18.53;;
8556;SDS011;4316;53.840;10.762;2024-02-28T07:17:17;20.67;;;16.30;;
8556;SDS011;4316;53.840;10.762;2024-02-28T07:19:43;21.50;;;17.50;;
8556;SDS011;4316;53.840;10.762;2024-02-28T07:22:09;22.37;;;17.40;;
8556;SDS011;4316;53.840;10.762;2024-02-28T07:24:35;22.53;;;17.17;;
8556;SDS011;4316;53.840;10.762;2024-02-28T07:27:01;21.17;;;17.03;;
8556;SDS011;4316;53.840;10.762;2024-02-28T07:29:27;22.53;;;16.70;;
8556;SDS011;4316;53.840;10.762;2024-02-28T07:31:53;21.87;;;17.10;;
8556;SDS011;4316;53.840;10.762;2024-02-28T07:34:19;21.67;;;17.03;;
8556;SDS011;4316;53.840;10.762;2024-02-28T07:36:45;25.23;;;18.00;;
8556;SDS011;4316;53.840;10.762;2024-02-28T07:39:11;21.47;;;15.77;;
8556;SDS011;4316;53.840;10.762;2024-02-28T07:41:41;24.03;;;15.83;;
8556;SDS011;4316;53.840;10.762;2024-02-28T07:44:07;17.17;;;14.43;;
8556;SDS011;4316;53.840;10.762;2024-02-28T07:46:33;20.30;;;15.57;;
8556;SDS011;4316;53.840;10.762;2024-02-28T07:49:00;21.13;;;14.70;;
8556;SDS011;4316;53.840;10.762;2024-02-28T07:51:26;18.27;;;14.53;;
8556;SDS011;4316;53.840;10.762;2024-02-28T07:53:52;18.53;;;13.40;;
8556;SDS011;4316;53.840;10.762;2024-02-28T07:56:18;19.53;;;13.67;;
8556;SDS011;4316;53.840;10.762;2024-02-28T07:58:45;17.80;;;13.40;;
8556;SDS011;4316;53.840;10.762;2024-02-28T08:01:11;19.83;;;14.77;;
8556;SDS011;4316;53.840;10.762;2024-02-28T08:03:37;20.27;;;16.63;;
8556;SDS011;4316;53.840;10.762;2024-02-28T08:06:03;18.77;;;14.17;;
8556;SDS011;4316;53.840;10.762;2024-02-28T08:08:30;17.97;;;13.07;;
8556;SDS011;4316;53.840;10.762;2024-02-28T08:10:56;16.90;;;13.53;;
8556;SDS011;4316;53.840;10.762;2024-02-28T08:13:22;17.50;;;13.60;;
8556;SDS011;4316;53.840;10.762;2024-02-28T08:15:48;15.83;;;12.57;;
8556;SDS011;4316;53.840;10.762;2024-02-28T08:18:14;21.67;;;12.57;;
8556;SDS011;4316;53.840;10.762;2024-02-28T08:20:40;13.60;;;11.33;;
8556;SDS011;4316;53.840;10.762;2024-02-28T08:23:06;16.73;;;13.03;;
8556;SDS011;4316;53.840;10.762;2024-02-28T08:25:32;15.73;;;13.00;;
8556;SDS011;4316;53.840;10.762;2024-02-28T08:27:58;16.57;;;12.80;;
8556;SDS011;4316;53.840;10.762;2024-02-28T08:30:25;14.77;;;10.23;;
8556;SDS011;4316;53.840;10.762;2024-02-28T08:32:51;13.37;;;10.57;;
8556;SDS011;4316;53.840;10.762;2024-02-28T08:35:17;14.53;;;11.60;;
8556;SDS011;4316;53.840;10.762;2024-02-28T08:37:45;15.77;;;12.60;;
8556;SDS011;4316;53.840;10.762;2024-02-28T08:40:10;15.37;;;12.70;;
8556;SDS011;4316;53.840;10.762;2024-02-28T08:42:37;14.73;;;10.77;;
8556;SDS011;4316;53.840;10.762;2024-02-28T08:45:03;20.37;;;11.57;;
8556;SDS011;4316;53.840;10.762;2024-02-28T08:47:31;16.40;;;12.20;;
8556;SDS011;4316;53.840;10.762;2024-02-28T08:49:57;20.93;;;11.87;;
8556;SDS011;4316;53.840;10.762;2024-02-28T08:52:22;15.27;;;12.67;;
8556;SDS011;4316;53.840;10.762;2024-02-28T08:54:48;16.30;;;12.63;;
8556;SDS011;4316;53.840;10.762;2024-02-28T08:57:14;15.00;;;13.40;;
8556;SDS011;4316;53.840;10.762;2024-02-28T08:59:40;13.53;;;11.63;;
8556;SDS011;4316;53.840;10.762;2024-02-28T09:02:07;16.33;;;13.27;;
8556;SDS011;4316;53.840;10.762;2024-02-28T09:04:33;16.70;;;13.13;;
8556;SDS011;4316;53.840;10.762;2024-02-28T09:06:59;15.13;;;12.33;;
8556;SDS011;4316;53.840;10.762;2024-02-28T09:09:25;16.63;;;13.33;;
8556;SDS011;4316;53.840;10.762;2024-02-28T09:11:53;15.53;;;12.87;;
8556;SDS011;4316;53.840;10.762;2024-02-28T09:14:19;17.13;;;13.07;;
8556;SDS011;4316;53.840;10.762;2024-02-28T09:16:44;19.17;;;13.97;;
8556;SDS011;4316;53.840;10.762;2024-02-28T09:19:10;18.90;;;12.70;;
8556;SDS011;4316;53.840;10.762;2024-02-28T09:21:36;18.53;;;12.57;;
8556;SDS011;4316;53.840;10.762;2024-02-28T09:24:02;16.13;;;13.67;;
8556;SDS011;4316;53.840;10.762;2024-02-28T09:26:27;15.93;;;13.67;;
8556;SDS011;4316;53.840;10.762;2024-02-28T09:28:53;17.07;;;14.23;;
8556;SDS011;4316;53.840;10.762;2024-02-28T09:31:19;15.33;;;13.57;;
8556;SDS011;4316;53.840;10.762;2024-02-28T09:33:45;15.77;;;12.23;;
8556;SDS011;4316;53.840;10.762;2024-02-28T09:36:11;16.53;;;13.30;;
8556;SDS011;4316;53.840;10.762;2024-02-28T09:38:38;16.57;;;13.10;;
8556;SDS011;4316;53.840;10.762;2024-02-28T09:41:04;17.53;;;14.67;;
8556;SDS011;4316;53.840;10.762;2024-02-28T09:43:31;17.47;;;13.13;;
8556;SDS011;4316;53.840;10.762;2024-02-28T09:46:07;18.77;;;14.13;;
8556;SDS011;4316;53.840;10.762;2024-02-28T09:48:40;17.40;;;12.83;;
8556;SDS011;4316;53.840;10.762;2024-02-28T09:51:06;16.40;;;14.37;;
8556;SDS011;4316;53.840;10.762;2024-02-28T09:53:35;17.80;;;13.80;;
8556;SDS011;4316;53.840;10.762;2024-02-28T09:56:02;18.13;;;13.77;;
8556;SDS011;4316;53.840;10.762;2024-02-28T09:58:28;17.20;;;14.07;;
8556;SDS011;4316;53.840;10.762;2024-02-28T10:00:56;18.23;;;13.67;;
8556;SDS011;4316;53.840;10.762;2024-02-28T10:03:25;18.90;;;15.13;;
8556;SDS011;4316;53.840;10.762;2024-02-28T10:05:52;18.43;;;14.57;;
8556;SDS011;4316;53.840;10.762;2024-02-28T10:08:18;17.00;;;14.37;;
8556;SDS011;4316;53.840;10.762;2024-02-28T10:10:45;18.10;;;14.07;;
8556;SDS011;4316;53.840;10.762;2024-02-28T10:13:12;19.93;;;14.27;;
8556;SDS011;4316;53.840;10.762;2024-02-28T10:15:39;20.30;;;14.97;;
8556;SDS011;4316;53.840;10.762;2024-02-28T10:18:05;17.57;;;14.57;;
8556;SDS011;4316;53.840;10.762;2024-02-28T10:20:31;18.70;;;15.07;;
8556;SDS011;4316;53.840;10.762;2024-02-28T10:22:58;19.83;;;14.90;;
8556;SDS011;4316;53.840;10.762;2024-02-28T10:25:24;19.80;;;15.10;;
8556;SDS011;4316;53.840;10.762;2024-02-28T10:27:51;19.13;;;14.47;;
8556;SDS011;4316;53.840;10.762;2024-02-28T10:30:18;17.40;;;13.43;;
8556;SDS011;4316;53.840;10.762;2024-02-28T10:32:51;18.73;;;15.07;;
8556;SDS011;4316;53.840;10.762;2024-02-28T10:35:17;17.30;;;15.37;;
8556;SDS011;4316;53.840;10.762;2024-02-28T10:37:45;20.93;;;15.30;;
8556;SDS011;4316;53.840;10.762;2024-02-28T10:40:15;22.27;;;14.67;;
8556;SDS011;4316;53.840;10.762;2024-02-28T10:42:43;17.60;;;14.53;;
8556;SDS011;4316;53.840;10.762;2024-02-28T10:45:09;19.67;;;15.00;;
8556;SDS011;4316;53.840;10.762;2024-02-28T10:47:38;17.63;;;13.27;;
8556;SDS011;4316;53.840;10.762;2024-02-28T10:50:05;16.17;;;14.33;;
8556;SDS011;4316;53.840;10.762;2024-02-28T10:52:33;17.67;;;14.47;;
8556;SDS011;4316;53.840;10.762;2024-02-28T10:55:01;20.20;;;15.93;;
8556;SDS011;4316;53.840;10.762;2024-02-28T10:57:29;21.23;;;15.97;;
8556;SDS011;4316;53.840;10.762;2024-02-28T10:59:59;19.90;;;15.67;;
8556;SDS011;4316;53.840;10.762;2024-02-28T11:02:29;18.47;;;14.93;;
8556;SDS011;4316;53.840;10.762;2024-02-28T11:04:57;15.27;;;12.97;;
8556;SDS011;4316;53.840;10.762;2024-02-28T11:07:27;16.33;;;13.27;;
8556;SDS011;4316;53.840;10.762;2024-02-28T11:09:53;17.40;;;14.53;;
8556;SDS011;4316;53.840;10.762;2024-02-28T11:12:27;18.93;;;12.97;;
8556;SDS011;4316;53.840;10.762;2024-02-28T11:14:57;20.63;;;14.60;;
8556;SDS011;4316;53.840;10.762;2024-02-28T11:17:29;17.50;;;13.57;;
8556;SDS011;4316;53.840;10.762;2024-02-28T11:19:56;17.27;;;13.90;;
8556;SDS011;4316;53.840;10.762;2024-02-28T11:22:22;16.70;;;13.87;;
8556;SDS011;4316;53.840;10.762;2024-02-28T11:24:48;16.03;;;13.67;;
8556;SDS011;4316;53.840;10.762;2024-02-28T11:27:18;16.57;;;13.30;;
8556;SDS011;4316;53.840;10.762;2024-02-28T11:29:44;19.43;;;13.30;;
8556;SDS011;4316;53.840;10.762;2024-02-28T11:32:14;15.70;;;14.00;;
8556;SDS011;4316;53.840;10.762;2024-02-28T11:34:41;21.10;;;14.03;;
8556;SDS011;4316;53.840;10.762;2024-02-28T11:37:08;16.77;;;14.00;;
8556;SDS011;4316;53.840;10.762;2024-02-28T11:39:34;14.93;;;12.00;;
8556;SDS011;4316;53.840;10.762;2024-02-28T11:42:11;16.13;;;13.60;;
8556;SDS011;4316;53.840;10.762;2024-02-28T11:44:41;17.40;;;14.07;;
8556;SDS011;4316;53.840;10.762;2024-02-28T11:47:10;14.20;;;11.57;;
8556;SDS011;4316;53.840;10.762;2024-02-28T11:49:39;18.23;;;13.57;;
8556;SDS011;4316;53.840;10.762;2024-02-28T11:52:05;17.43;;;13.17;;
8556;SDS011;4316;53.840;10.762;2024-02-28T11:54:31;16.17;;;11.83;;
8556;SDS011;4316;53.840;10.762;2024-02-28T11:56:57;15.27;;;13.33;;
8556;SDS011;4316;53.840;10.762;2024-02-28T11:59:23;14.53;;;11.93;;
8556;SDS011;4316;53.840;10.762;2024-02-28T12:01:49;16.90;;;12.00;;
8556;SDS011;4316;53.840;10.762;2024-02-28T12:04:16;18.80;;;12.00;;
8556;SDS011;4316;53.840;10.762;2024-02-28T12:06:42;17.07;;;11.80;;
8556;SDS011;4316;53.840;10.762;2024-02-28T12:09:09;17.27;;;12.37;;
8556;SDS011;4316;53.840;10.762;2024-02-28T12:11:39;13.60;;;11.50;;
8556;SDS011;4316;53.840;10.762;2024-02-28T12:14:08;14.97;;;10.90;;
8556;SDS011;4316;53.840;10.762;2024-02-28T12:16:38;15.37;;;11.10;;
8556;SDS011;4316;53.840;10.762;2024-02-28T12:19:11;13.40;;;10.60;;
8556;SDS011;4316;53.840;10.762;2024-02-28T12:21:38;11.53;;;9.47;;
8556;SDS011;4316;53.840;10.762;2024-02-28T12:24:08;14.60;;;9.80;;
8556;SDS011;4316;53.840;10.762;2024-02-28T12:26:38;14.20;;;10.63;;
8556;SDS011;4316;53.840;10.762;2024-02-28T12:29:04;11.53;;;10.17;;
8556;SDS011;4316;53.840;10.762;2024-02-28T12:31:30;16.33;;;11.13;;
8556;SDS011;4316;53.840;10.762;2024-02-28T12:33:56;15.23;;;10.73;;
8556;SDS011;4316;53.840;10.762;2024-02-28T12:36:22;18.93;;;14.50;;
8556;SDS011;4316;53.840;10.762;2024-02-28T12:38:48;17.17;;;11.90;;
8556;SDS011;4316;53.840;10.762;2024-02-28T12:41:14;14.33;;;12.47;;
8556;SDS011;4316;53.840;10.762;2024-02-28T12:43:43;13.73;;;11.70;;
8556;SDS011;4316;53.840;10.762;2024-02-28T12:46:08;18.90;;;12.00;;
8556;SDS011;4316;53.840;10.762;2024-02-28T12:48:41;14.07;;;9.53;;
8556;SDS011;4316;53.840;10.762;2024-02-28T12:51:08;11.90;;;9.70;;
8556;SDS011;4316;53.840;10.762;2024-02-28T12:53:35;13.83;;;10.50;;
8556;SDS011;4316;53.840;10.762;2024-02-28T12:56:01;13.83;;;10.33;;
8556;SDS011;4316;53.840;10.762;2024-02-28T12:58:27;12.67;;;10.73;;
8556;SDS011;4316;53.840;10.762;2024-02-28T13:00:53;12.30;;;10.33;;
8556;SDS011;4316;53.840;10.762;2024-02-28T13:03:19;18.17;;;11.63;;
8556;SDS011;4316;53.840;10.762;2024-02-28T13:05:45;14.17;;;11.90;;
8556;SDS011;4316;53.840;10.762;2024-02-28T13:08:11;14.33;;;11.80;;
8556;SDS011;4316;53.840;10.762;2024-02-28T13:10:37;18.63;;;11.63;;
8556;SDS011;4316;53.840;10.762;2024-02-28T13:13:09;16.20;;;12.40;;
8556;SDS011;4316;53.840;10.762;2024-02-28T13:15:35;16.90;;;12.13;;
8556;SDS011;4316;53.840;10.762;2024-02-28T13:18:00;14.90;;;12.07;;
8556;SDS011;4316;53.840;10.762;2024-02-28T13:20:32;14.63;;;12.23;;
8556;SDS011;4316;53.840;10.762;2024-02-28T13:22:58;17.27;;;13.33;;
8556;SDS011;4316;53.840;10.762;2024-02-28T13:25:23;15.73;;;12.13;;
8556;SDS011;4316;53.840;10.762;2024-02-28T13:27:49;16.70;;;11.87;;
8556;SDS011;4316;53.840;10.762;2024-02-28T13:30:15;14.87;;;11.30;;
8556;SDS011;4316;53.840;10.762;2024-02-28T13:32:40;16.37;;;11.50;;
8556;SDS011;4316;53.840;10.762;2024-02-28T13:35:07;13.80;;;11.17;;
8556;SDS011;4316;53.840;10.762;2024-02-28T13:37:33;14.20;;;10.53;;
8556;SDS011;4316;53.840;10.762;2024-02-28T13:39:59;18.60;;;11.63;;
8556;SDS011;4316;53.840;10.762;2024-02-28T13:42:25;17.07;;;10.93;;
8556;SDS011;4316;53.840;10.762;2024-02-28T13:44:51;13.90;;;10.70;;
8556;SDS011;4316;53.840;10.762;2024-02-28T13:47:17;11.43;;;9.77;;
8556;SDS011;4316;53.840;10.762;2024-02-28T13:49:42;11.83;;;10.20;;
8556;SDS011;4316;53.840;10.762;2024-02-28T13:52:08;12.83;;;10.57;;
8556;SDS011;4316;53.840;10.762;2024-02-28T13:54:34;13.50;;;10.00;;
8556;SDS011;4316;53.840;10.762;2024-02-28T13:57:00;14.57;;;10.77;;
8556;SDS011;4316;53.840;10.762;2024-02-28T13:59:27;13.80;;;10.83;;
8556;SDS011;4316;53.840;10.762;2024-02-28T14:01:53;14.33;;;10.97;;
8556;SDS011;4316;53.840;10.762;2024-02-28T14:04:19;13.17;;;10.30;;
8556;SDS011;4316;53.840;10.762;2024-02-28T14:06:45;13.50;;;10.90;;
8556;SDS011;4316;53.840;10.762;2024-02-28T14:09:13;14.73;;;10.20;;
8556;SDS011;4316;53.840;10.762;2024-02-28T14:11:39;12.47;;;9.77;;
8556;SDS011;4316;53.840;10.762;2024-02-28T14:14:05;15.00;;;10.10;;
8556;SDS011;4316;53.840;10.762;2024-02-28T14:16:32;11.03;;;9.20;;
8556;SDS011;4316;53.840;10.762;2024-02-28T14:18:58;15.87;;;10.10;;
8556;SDS011;4316;53.840;10.762;2024-02-28T14:21:24;13.87;;;9.73;;
8556;SDS011;4316;53.840;10.762;2024-02-28T14:23:50;13.33;;;9.90;;
8556;SDS011;4316;53.840;10.762;2024-02-28T14:26:16;14.63;;;10.17;;
8556;SDS011;4316;53.840;10.762;2024-02-28T14:28:42;10.37;;;8.57;;
8556;SDS011;4316;53.840;10.762;2024-02-28T14:31:08;12.73;;;8.63;;
8556;SDS011;4316;53.840;10.762;2024-02-28T14:33:34;11.50;;;9.37;;